sensor_id;sensor_type;location;lat;lon;timestamp;pressure;altitude;pressure_sealevel;temperature;humidity
12763;BME280;6445;52.490;13.378;2022-10-22T00:00:33;117895.81;;;-146.10;98.37
12763;BME280;6445;52.490;13.378;2022-10-22T00:02:58;117895.81;;;-146.10;98.59
12763;BME280;6445;52.490;13.378;2022-10-22T00:05:23;118156.13;;;-146.10;98.47
12763;BME280;6445;52.490;13.378;2022-10-22T00:07:49;118156.13;;;-146.10;98.66
12763;BME280;6445;52.490;13.378;2022-10-22T00:10:14;118156.13;;;-146.10;98.78
12763;BME280;6445;52.490;13.378;2022-10-22T00:12:41;118156.13;;;-146.10;99.15
12763;BME280;6445;52.490;13.378;2022-10-22T00:15:07;118156.13;;;-146.10;98.58
12763;BME280;6445;52.490;13.378;2022-10-22T00:17:32;118156.13;;;-146.10;98.65
12763;BME280;6445;52.490;13.378;2022-10-22T00:19:57;118156.13;;;-146.10;98.83
12763;BME280;6445;52.490;13.378;2022-10-22T00:22:23;118156.13;;;-146.10;98.83
12763;BME280;6445;52.490;13.378;2022-10-22T00:24:48;118156.13;;;-146.10;98.71
12763;BME280;6445;52.490;13.378;2022-10-22T00:27:13;118156.13;;;-146.10;98.83
12763;BME280;6445;52.490;13.378;2022-10-22T00:29:39;118156.13;;;-146.10;98.68
12763;BME280;6445;52.490;13.378;2022-10-22T00:32:04;118156.13;;;-146.10;98.95
12763;BME280;6445;52.490;13.378;2022-10-22T00:34:30;118416.44;;;-146.10;98.69
12763;BME280;6445;52.490;13.378;2022-10-22T00:36:55;118156.13;;;-146.10;98.78
12763;BME280;6445;52.490;13.378;2022-10-22T00:39:22;118416.44;;;-146.10;98.83
12763;BME280;6445;52.490;13.378;2022-10-22T00:41:50;118416.44;;;-146.10;99.06
12763;BME280;6445;52.490;13.378;2022-10-22T00:47:19;118156.13;;;-146.10;98.50
12763;BME280;6445;52.490;13.378;2022-10-22T00:49:47;118156.13;;;-146.10;98.81
12763;BME280;6445;52.490;13.378;2022-10-22T00:52:13;118416.44;;;-146.10;98.94
12763;BME280;6445;52.490;13.378;2022-10-22T00:54:38;118416.44;;;-146.10;99.04
12763;BME280;6445;52.490;13.378;2022-10-22T00:57:04;118416.44;;;-146.10;98.87
12763;BME280;6445;52.490;13.378;2022-10-22T00:59:30;118416.44;;;-146.10;99.12
12763;BME280;6445;52.490;13.378;2022-10-22T01:01:55;118416.44;;;-146.10;99.06
12763;BME280;6445;52.490;13.378;2022-10-22T01:04:21;118416.44;;;-146.10;98.99
12763;BME280;6445;52.490;13.378;2022-10-22T01:06:46;118416.44;;;-146.10;99.25
12763;BME280;6445;52.490;13.378;2022-10-22T01:09:29;118416.44;;;-146.10;99.18
12763;BME280;6445;52.490;13.378;2022-10-22T01:12:06;118416.44;;;-146.10;99.22
12763;BME280;6445;52.490;13.378;2022-10-22T01:14:45;118416.44;;;-146.10;99.04
12763;BME280;6445;52.490;13.378;2022-10-22T01:17:40;118416.44;;;-146.10;99.14
12763;BME280;6445;52.490;13.378;2022-10-22T01:22:44;118416.44;;;-146.10;99.36
12763;BME280;6445;52.490;13.378;2022-10-22T01:25:27;118416.44;;;-146.10;99.20
12763;BME280;6445;52.490;13.378;2022-10-22T01:30:36;118416.44;;;-146.10;98.92
12763;BME280;6445;52.490;13.378;2022-10-22T01:33:05;118416.44;;;-146.10;99.33
12763;BME280;6445;52.490;13.378;2022-10-22T01:35:37;118416.44;;;-146.10;99.08
12763;BME280;6445;52.490;13.378;2022-10-22T01:38:05;118416.44;;;-146.10;99.23
12763;BME280;6445;52.490;13.378;2022-10-22T01:40:33;118416.44;;;-146.10;99.17
12763;BME280;6445;52.490;13.378;2022-10-22T01:43:04;118416.44;;;-146.10;99.21
12763;BME280;6445;52.490;13.378;2022-10-22T01:45:36;118416.44;;;-146.10;99.12
12763;BME280;6445;52.490;13.378;2022-10-22T01:48:35;118416.44;;;-146.10;99.13
12763;BME280;6445;52.490;13.378;2022-10-22T01:54:24;118416.44;;;-146.10;99.11
12763;BME280;6445;52.490;13.378;2022-10-22T01:57:07;118418.47;;;-146.10;99.17
12763;BME280;6445;52.490;13.378;2022-10-22T01:59:47;118418.47;;;-146.10;99.16
12763;BME280;6445;52.490;13.378;2022-10-22T02:02:39;118418.47;;;-146.10;99.38
12763;BME280;6445;52.490;13.378;2022-10-22T02:05:11;118416.44;;;-146.10;99.11
12763;BME280;6445;52.490;13.378;2022-10-22T02:07:48;118416.44;;;-146.10;99.18
12763;BME280;6445;52.490;13.378;2022-10-22T02:10:16;118418.47;;;-146.10;99.28
12763;BME280;6445;52.490;13.378;2022-10-22T02:12:43;118418.47;;;-146.10;99.25
12763;BME280;6445;52.490;13.378;2022-10-22T02:15:13;118418.47;;;-146.10;99.19
12763;BME280;6445;52.490;13.378;2022-10-22T02:17:41;118418.47;;;-146.10;99.43
12763;BME280;6445;52.490;13.378;2022-10-22T02:20:12;118418.47;;;-146.10;99.48
12763;BME280;6445;52.490;13.378;2022-10-22T02:22:40;118418.47;;;-146.10;99.26
12763;BME280;6445;52.490;13.378;2022-10-22T02:25:06;118418.47;;;-146.10;99.53
12763;BME280;6445;52.490;13.378;2022-10-22T02:27:53;118418.47;;;-146.10;99.25
12763;BME280;6445;52.490;13.378;2022-10-22T02:30:23;118418.47;;;-146.10;99.55
12763;BME280;6445;52.490;13.378;2022-10-22T02:32:57;118418.47;;;-146.10;99.40
12763;BME280;6445;52.490;13.378;2022-10-22T02:35:25;118418.47;;;-146.10;99.51
12763;BME280;6445;52.490;13.378;2022-10-22T02:37:52;118418.47;;;-146.10;99.15
12763;BME280;6445;52.490;13.378;2022-10-22T02:40:20;118418.47;;;-146.10;99.57
12763;BME280;6445;52.490;13.378;2022-10-22T02:42:46;118418.47;;;-146.10;99.34
12763;BME280;6445;52.490;13.378;2022-10-22T02:45:12;118418.47;;;-146.10;99.55
12763;BME280;6445;52.490;13.378;2022-10-22T02:47:37;118418.47;;;-146.10;99.59
12763;BME280;6445;52.490;13.378;2022-10-22T02:50:03;118418.47;;;-146.10;99.60
12763;BME280;6445;52.490;13.378;2022-10-22T02:52:28;118418.47;;;-146.10;99.60
12763;BME280;6445;52.490;13.378;2022-10-22T02:54:54;118418.47;;;-146.10;99.46
12763;BME280;6445;52.490;13.378;2022-10-22T02:57:19;118418.47;;;-146.10;99.44
12763;BME280;6445;52.490;13.378;2022-10-22T02:59:44;118418.47;;;-146.10;99.72
12763;BME280;6445;52.490;13.378;2022-10-22T03:02:09;118418.47;;;-146.10;100.00
12763;BME280;6445;52.490;13.378;2022-10-22T03:04:35;118418.47;;;-146.10;99.68
12763;BME280;6445;52.490;13.378;2022-10-22T03:07:00;118418.47;;;-146.10;99.60
12763;BME280;6445;52.490;13.378;2022-10-22T03:09:25;118418.47;;;-146.10;99.93
12763;BME280;6445;52.490;13.378;2022-10-22T03:11:51;118418.47;;;-146.10;99.50
12763;BME280;6445;52.490;13.378;2022-10-22T03:14:16;118418.47;;;-146.10;99.57
12763;BME280;6445;52.490;13.378;2022-10-22T03:16:41;118418.47;;;-146.10;99.45
12763;BME280;6445;52.490;13.378;2022-10-22T03:19:07;118418.47;;;-146.10;99.48
12763;BME280;6445;52.490;13.378;2022-10-22T03:21:35;118418.47;;;-146.10;99.07
12763;BME280;6445;52.490;13.378;2022-10-22T03:24:08;118418.47;;;-146.10;99.16
12763;BME280;6445;52.490;13.378;2022-10-22T03:26:37;118418.47;;;-146.10;99.13
12763;BME280;6445;52.490;13.378;2022-10-22T03:29:03;118418.47;;;-146.10;99.23
12763;BME280;6445;52.490;13.378;2022-10-22T03:31:29;118418.47;;;-146.10;99.16
12763;BME280;6445;52.490;13.378;2022-10-22T03:33:54;118418.47;;;-146.10;99.07
12763;BME280;6445;52.490;13.378;2022-10-22T03:36:19;118418.47;;;-146.10;99.13
12763;BME280;6445;52.490;13.378;2022-10-22T03:38:45;118418.47;;;-146.10;99.25
12763;BME280;6445;52.490;13.378;2022-10-22T03:41:10;118418.47;;;-146.10;99.22
12763;BME280;6445;52.490;13.378;2022-10-22T03:43:37;118418.47;;;-146.10;99.55
12763;BME280;6445;52.490;13.378;2022-10-22T03:46:03;118418.47;;;-146.10;99.23
12763;BME280;6445;52.490;13.378;2022-10-22T03:48:29;118418.47;;;-146.10;99.49
12763;BME280;6445;52.490;13.378;2022-10-22T03:50:54;118418.47;;;-146.10;99.45
12763;BME280;6445;52.490;13.378;2022-10-22T03:53:20;118418.47;;;-146.10;99.28
12763;BME280;6445;52.490;13.378;2022-10-22T03:55:45;118418.47;;;-146.10;99.27
12763;BME280;6445;52.490;13.378;2022-10-22T03:58:10;118418.47;;;-146.10;99.15
12763;BME280;6445;52.490;13.378;2022-10-22T04:00:36;118418.47;;;-146.10;99.48
12763;BME280;6445;52.490;13.378;2022-10-22T04:03:01;118418.47;;;-146.10;99.49
12763;BME280;6445;52.490;13.378;2022-10-22T04:05:27;118418.47;;;-146.10;99.17
12763;BME280;6445;52.490;13.378;2022-10-22T04:07:52;118418.47;;;-146.10;99.52
12763;BME280;6445;52.490;13.378;2022-10-22T04:10:17;118418.47;;;-146.10;99.42
12763;BME280;6445;52.490;13.378;2022-10-22T04:12:46;118418.47;;;-146.10;99.27
12763;BME280;6445;52.490;13.378;2022-10-22T04:15:11;118418.47;;;-146.10;99.71
12763;BME280;6445;52.490;13.378;2022-10-22T04:17:36;118418.47;;;-146.10;99.33
12763;BME280;6445;52.490;13.378;2022-10-22T04:20:03;118418.47;;;-146.10;99.28
12763;BME280;6445;52.490;13.378;2022-10-22T04:22:28;118418.47;;;-146.10;99.55
12763;BME280;6445;52.490;13.378;2022-10-22T04:24:54;118418.47;;;-146.10;99.40
12763;BME280;6445;52.490;13.378;2022-10-22T04:27:19;118418.47;;;-146.10;99.70
12763;BME280;6445;52.490;13.378;2022-10-22T04:29:45;118418.47;;;-146.10;99.48
12763;BME280;6445;52.490;13.378;2022-10-22T04:32:10;118418.47;;;-146.10;99.62
12763;BME280;6445;52.490;13.378;2022-10-22T04:34:35;118418.47;;;-146.10;99.46
12763;BME280;6445;52.490;13.378;2022-10-22T04:37:00;118418.47;;;-146.10;99.54
12763;BME280;6445;52.490;13.378;2022-10-22T04:39:26;118418.47;;;-146.10;99.52
12763;BME280;6445;52.490;13.378;2022-10-22T04:41:51;118418.47;;;-146.10;99.83
12763;BME280;6445;52.490;13.378;2022-10-22T04:44:16;118418.47;;;-146.10;99.64
12763;BME280;6445;52.490;13.378;2022-10-22T04:46:42;118418.47;;;-146.10;99.70
12763;BME280;6445;52.490;13.378;2022-10-22T04:49:07;118418.47;;;-146.10;99.86
12763;BME280;6445;52.490;13.378;2022-10-22T04:51:32;118418.47;;;-146.10;99.70
12763;BME280;6445;52.490;13.378;2022-10-22T04:53:57;118418.47;;;-146.10;99.89
12763;BME280;6445;52.490;13.378;2022-10-22T04:56:25;118418.47;;;-146.10;99.83
12763;BME280;6445;52.490;13.378;2022-10-22T04:58:56;118418.47;;;-146.10;99.74
12763;BME280;6445;52.490;13.378;2022-10-22T05:01:27;118418.47;;;-146.10;99.78
12763;BME280;6445;52.490;13.378;2022-10-22T05:03:55;118418.47;;;-146.10;99.56
12763;BME280;6445;52.490;13.378;2022-10-22T05:06:22;118418.47;;;-146.10;99.71
12763;BME280;6445;52.490;13.378;2022-10-22T05:08:52;118418.47;;;-146.10;99.90
12763;BME280;6445;52.490;13.378;2022-10-22T05:11:23;118418.47;;;-146.10;100.00
12763;BME280;6445;52.490;13.378;2022-10-22T05:13:48;118418.47;;;-146.10;99.87
12763;BME280;6445;52.490;13.378;2022-10-22T05:16:14;118418.47;;;-146.10;99.64
12763;BME280;6445;52.490;13.378;2022-10-22T05:18:41;118418.47;;;-146.10;99.54
12763;BME280;6445;52.490;13.378;2022-10-22T05:21:09;118418.47;;;-146.10;99.55
12763;BME280;6445;52.490;13.378;2022-10-22T05:23:35;118418.47;;;-146.10;99.81
12763;BME280;6445;52.490;13.378;2022-10-22T05:26:05;118418.47;;;-146.10;99.76
12763;BME280;6445;52.490;13.378;2022-10-22T05:28:32;118418.47;;;-146.10;99.82
12763;BME280;6445;52.490;13.378;2022-10-22T05:30:59;118418.47;;;-146.10;99.96
12763;BME280;6445;52.490;13.378;2022-10-22T05:33:26;118418.47;;;-146.10;99.97
12763;BME280;6445;52.490;13.378;2022-10-22T05:35:52;118418.47;;;-146.10;99.94
12763;BME280;6445;52.490;13.378;2022-10-22T05:38:18;118418.47;;;-146.10;100.00
12763;BME280;6445;52.490;13.378;2022-10-22T05:40:43;118418.47;;;-146.10;100.00
12763;BME280;6445;52.490;13.378;2022-10-22T05:43:09;118418.47;;;-146.10;99.82
12763;BME280;6445;52.490;13.378;2022-10-22T05:45:36;118418.47;;;-146.10;99.94
12763;BME280;6445;52.490;13.378;2022-10-22T05:48:01;118418.47;;;-146.10;99.80
12763;BME280;6445;52.490;13.378;2022-10-22T05:50:27;118418.47;;;-146.10;99.87
12763;BME280;6445;52.490;13.378;2022-10-22T05:52:52;118418.47;;;-146.10;100.00
12763;BME280;6445;52.490;13.378;2022-10-22T05:55:17;118418.47;;;-146.10;99.96
12763;BME280;6445;52.490;13.378;2022-10-22T05:57:42;118418.47;;;-146.10;99.97
12763;BME280;6445;52.490;13.378;2022-10-22T06:00:08;118418.47;;;-146.10;100.00
12763;BME280;6445;52.490;13.378;2022-10-22T06:02:33;118418.47;;;-146.10;100.00
12763;BME280;6445;52.490;13.378;2022-10-22T06:04:59;118418.47;;;-146.10;100.00
12763;BME280;6445;52.490;13.378;2022-10-22T06:07:24;118418.47;;;-146.10;100.00
12763;BME280;6445;52.490;13.378;2022-10-22T06:09:49;118418.47;;;-146.10;100.00
12763;BME280;6445;52.490;13.378;2022-10-22T06:12:15;118418.47;;;-146.10;100.00
12763;BME280;6445;52.490;13.378;2022-10-22T06:14:40;118418.47;;;-146.10;100.00
12763;BME280;6445;52.490;13.378;2022-10-22T06:17:06;118418.47;;;-146.10;99.87
12763;BME280;6445;52.490;13.378;2022-10-22T06:19:31;118418.47;;;-146.10;100.00
12763;BME280;6445;52.490;13.378;2022-10-22T06:21:56;118418.47;;;-146.10;100.00
12763;BME280;6445;52.490;13.378;2022-10-22T06:24:21;118418.47;;;-146.10;100.00
12763;BME280;6445;52.490;13.378;2022-10-22T06:26:51;118418.47;;;-146.10;99.98
12763;BME280;6445;52.490;13.378;2022-10-22T06:29:16;118418.47;;;-146.10;100.00
12763;BME280;6445;52.490;13.378;2022-10-22T06:31:42;118418.47;;;-146.10;100.00
12763;BME280;6445;52.490;13.378;2022-10-22T06:34:10;118418.47;;;-146.10;100.00
12763;BME280;6445;52.490;13.378;2022-10-22T06:36:36;118418.47;;;-146.10;100.00
12763;BME280;6445;52.490;13.378;2022-10-22T06:39:02;118418.47;;;-146.10;100.00
12763;BME280;6445;52.490;13.378;2022-10-22T06:41:28;118418.47;;;-146.10;100.00
12763;BME280;6445;52.490;13.378;2022-10-22T06:43:53;118418.47;;;-146.10;100.00
12763;BME280;6445;52.490;13.378;2022-10-22T06:46:21;118418.47;;;-146.10;100.00
12763;BME280;6445;52.490;13.378;2022-10-22T06:48:51;118418.47;;;-146.10;100.00
12763;BME280;6445;52.490;13.378;2022-10-22T06:51:18;118418.47;;;-146.10;100.00
12763;BME280;6445;52.490;13.378;2022-10-22T06:53:43;118418.47;;;-146.10;100.00
12763;BME280;6445;52.490;13.378;2022-10-22T06:56:12;118418.47;;;-146.10;100.00
12763;BME280;6445;52.490;13.378;2022-10-22T06:58:37;118418.47;;;-146.10;100.00
12763;BME280;6445;52.490;13.378;2022-10-22T07:01:05;118418.47;;;-146.10;100.00
12763;BME280;6445;52.490;13.378;2022-10-22T07:03:31;118418.47;;;-146.10;99.56
12763;BME280;6445;52.490;13.378;2022-10-22T07:06:00;118418.47;;;-146.10;99.36
12763;BME280;6445;52.490;13.378;2022-10-22T07:08:27;118418.47;;;-146.10;99.44
12763;BME280;6445;52.490;13.378;2022-10-22T07:10:53;118418.47;;;-146.10;99.23
12763;BME280;6445;52.490;13.378;2022-10-22T07:13:18;118418.47;;;-146.10;98.97
12763;BME280;6445;52.490;13.378;2022-10-22T07:15:43;118418.47;;;-146.10;98.76
12763;BME280;6445;52.490;13.378;2022-10-22T07:18:09;118418.47;;;-146.10;98.75
12763;BME280;6445;52.490;13.378;2022-10-22T07:20:34;118418.47;;;-146.10;98.82
12763;BME280;6445;52.490;13.378;2022-10-22T07:22:59;118418.47;;;-146.10;98.42
12763;BME280;6445;52.490;13.378;2022-10-22T07:25:25;118416.44;;;-146.10;97.82
12763;BME280;6445;52.490;13.378;2022-10-22T07:27:50;118156.13;;;-146.10;97.44
12763;BME280;6445;52.490;13.378;2022-10-22T07:30:16;118156.13;;;-146.10;97.29
12763;BME280;6445;52.490;13.378;2022-10-22T07:32:41;118156.13;;;-146.10;97.35
12763;BME280;6445;52.490;13.378;2022-10-22T07:35:07;117895.81;;;-146.10;96.95
12763;BME280;6445;52.490;13.378;2022-10-22T07:37:32;117635.53;;;-146.10;96.56
12763;BME280;6445;52.490;13.378;2022-10-22T07:39:57;117115.03;;;-146.10;95.97
12763;BME280;6445;52.490;13.378;2022-10-22T07:42:23;116334.38;;;-146.10;95.31
12763;BME280;6445;52.490;13.378;2022-10-22T07:44:48;114773.50;;;-146.10;94.14
12763;BME280;6445;52.490;13.378;2022-10-22T07:47:13;113213.25;;;-146.10;93.53
12763;BME280;6445;52.490;13.378;2022-10-22T07:49:38;111653.59;;;-146.10;92.85
12763;BME280;6445;52.490;13.378;2022-10-22T07:52:05;110094.50;;;-146.10;91.87
12763;BME280;6445;52.490;13.378;2022-10-22T07:54:31;105161.41;;;-146.10;90.45
12763;BME280;6445;52.490;13.378;2022-10-22T07:56:56;106718.56;;;-146.10;91.14
12763;BME280;6445;52.490;13.378;2022-10-22T07:59:22;108016.69;;;-146.10;91.46
12763;BME280;6445;52.490;13.378;2022-10-22T08:01:47;111133.81;;;-146.10;92.39
12763;BME280;6445;52.490;13.378;2022-10-22T08:04:12;111393.69;;;-146.10;92.43
12763;BME280;6445;52.490;13.378;2022-10-22T08:06:37;111653.59;;;-146.10;92.54
12763;BME280;6445;52.490;13.378;2022-10-22T08:09:03;112173.41;;;-146.10;92.85
12763;BME280;6445;52.490;13.378;2022-10-22T08:11:29;111913.50;;;-146.10;92.50
12763;BME280;6445;52.490;13.378;2022-10-22T08:13:55;111133.81;;;-146.10;92.19
12763;BME280;6445;52.490;13.378;2022-10-22T08:16:20;110614.13;;;-146.10;92.13
12763;BME280;6445;52.490;13.378;2022-10-22T08:18:45;109574.94;;;-146.10;91.56
12763;BME280;6445;52.490;13.378;2022-10-22T08:21:11;107497.38;;;-146.10;90.78
12763;BME280;6445;52.490;13.378;2022-10-22T08:23:37;107757.03;;;-146.10;90.76
12763;BME280;6445;52.490;13.378;2022-10-22T08:26:03;107237.78;;;-146.10;90.59
12763;BME280;6445;52.490;13.378;2022-10-22T08:28:29;108536.03;;;-146.10;91.22
12763;BME280;6445;52.490;13.378;2022-10-22T08:30:57;108795.75;;;-146.10;91.24
12763;BME280;6445;52.490;13.378;2022-10-22T08:33:22;109055.47;;;-146.10;91.18
12763;BME280;6445;52.490;13.378;2022-10-22T08:35:49;109055.47;;;-146.10;91.35
12763;BME280;6445;52.490;13.378;2022-10-22T08:38:14;108276.34;;;-146.10;90.90
12763;BME280;6445;52.490;13.378;2022-10-22T08:40:40;107757.03;;;-146.10;90.86
12763;BME280;6445;52.490;13.378;2022-10-22T08:43:19;107757.03;;;-146.10;90.67
12763;BME280;6445;52.490;13.378;2022-10-22T08:51:22;105680.38;;;-146.10;89.94
12763;BME280;6445;52.490;13.378;2022-10-22T08:56:42;104642.47;;;-146.10;89.56
12763;BME280;6445;52.490;13.378;2022-10-22T08:59:36;102048.81;;;-146.10;88.79
12763;BME280;6445;52.490;13.378;2022-10-22T09:07:46;99197.72;;;-146.10;88.10
12763;BME280;6445;52.490;13.378;2022-10-22T09:10:15;96866.50;;;-146.10;87.40
12763;BME280;6445;52.490;13.378;2022-10-22T09:12:41;93760.28;;;-146.10;86.77
12763;BME280;6445;52.490;13.378;2022-10-22T09:15:12;94795.44;;;-146.10;87.00
12763;BME280;6445;52.490;13.378;2022-10-22T09:17:49;94795.44;;;-146.10;87.11
12763;BME280;6445;52.490;13.378;2022-10-22T09:20:23;96607.56;;;-146.10;87.83
12763;BME280;6445;52.490;13.378;2022-10-22T09:25:44;91432.19;;;-146.10;86.33
12763;BME280;6445;52.490;13.378;2022-10-22T09:28:09;87038.34;;;-146.10;85.45
12763;BME280;6445;52.490;13.378;2022-10-22T09:30:36;85488.72;;;-146.10;85.13
12763;BME280;6445;52.490;13.378;2022-10-22T09:35:42;82391.25;;;-146.10;84.56
12763;BME280;6445;52.490;13.378;2022-10-22T09:38:08;80585.50;;;-146.10;84.35
12763;BME280;6445;52.490;13.378;2022-10-22T09:40:55;83423.50;;;-146.10;84.90
12763;BME280;6445;52.490;13.378;2022-10-22T09:43:20;86263.47;;;-146.10;85.21
12763;BME280;6445;52.490;13.378;2022-10-22T09:45:46;85746.97;;;-146.10;84.98
12763;BME280;6445;52.490;13.378;2022-10-22T09:48:21;80327.63;;;-146.10;84.08
12763;BME280;6445;52.490;13.378;2022-10-22T09:51:12;76461.13;;;-146.10;83.45
12763;BME280;6445;52.490;13.378;2022-10-22T09:53:44;78007.28;;;-146.10;83.87
12763;BME280;6445;52.490;13.378;2022-10-22T09:56:17;76203.50;;;-146.10;83.55
12763;BME280;6445;52.490;13.378;2022-10-22T09:58:48;74400.53;;;-146.10;83.49
12763;BME280;6445;52.490;13.378;2022-10-22T10:01:18;68952.31;;;-146.10;82.68
12763;BME280;6445;52.490;13.378;2022-10-22T10:06:21;80327.63;;;-146.10;84.17
12763;BME280;6445;52.490;13.378;2022-10-22T10:08:48;80843.44;;;-146.10;84.21
12763;BME280;6445;52.490;13.378;2022-10-22T10:11:22;80585.50;;;-146.10;84.31
12763;BME280;6445;52.490;13.378;2022-10-22T10:14:12;82649.28;;;-146.10;84.27
12763;BME280;6445;52.490;13.378;2022-10-22T10:16:47;82907.34;;;-146.10;84.47
12763;BME280;6445;52.490;13.378;2022-10-22T10:22:30;78522.78;;;-146.10;83.78
12763;BME280;6445;52.490;13.378;2022-10-22T10:25:20;78522.78;;;-146.10;83.71
12763;BME280;6445;52.490;13.378;2022-10-22T10:28:00;80069.72;;;-146.10;84.01
12763;BME280;6445;52.490;13.378;2022-10-22T10:30:28;76976.44;;;-146.10;83.58
12763;BME280;6445;52.490;13.378;2022-10-22T10:33:31;77491.84;;;-146.10;83.61
12763;BME280;6445;52.490;13.378;2022-10-22T10:36:18;77234.13;;;-146.10;83.82
12763;BME280;6445;52.490;13.378;2022-10-22T10:38:53;74143.03;;;-146.10;83.24
12763;BME280;6445;52.490;13.378;2022-10-22T10:41:48;74400.53;;;-146.10;83.21
12763;BME280;6445;52.490;13.378;2022-10-22T10:48:29;72220.34;;;-146.10;82.58
12763;BME280;6445;52.490;13.378;2022-10-22T10:59:00;65389.84;;;-146.10;81.73
12763;BME280;6445;52.490;13.378;2022-10-22T11:01:49;59286.47;;;-146.10;80.27
12763;BME280;6445;52.490;13.378;2022-10-22T11:07:06;56385.47;;;-146.10;78.65
12763;BME280;6445;52.490;13.378;2022-10-22T11:09:38;54709.56;;;-146.10;76.84
12763;BME280;6445;52.490;13.378;2022-10-22T11:12:12;53924.91;;;-146.10;75.44
12763;BME280;6445;52.490;13.378;2022-10-22T11:14:57;53464.59;;;-146.10;74.19
12763;BME280;6445;52.490;13.378;2022-10-22T11:17:33;53302.50;;;-146.10;74.18
12763;BME280;6445;52.490;13.378;2022-10-22T11:20:20;53520.63;;;-146.10;75.06
12763;BME280;6445;52.490;13.378;2022-10-22T11:22:54;53726.78;;;-146.10;75.30
12763;BME280;6445;52.490;13.378;2022-10-22T11:25:26;52870.28;;;-146.10;71.29
12763;BME280;6445;52.490;13.378;2022-10-22T11:27:58;52928.31;;;-146.10;72.11
12763;BME280;6445;52.490;13.378;2022-10-22T11:30:29;52576.16;;;-146.10;65.55
12763;BME280;6445;52.490;13.378;2022-10-22T11:33:00;52514.13;;;-146.10;57.96
12763;BME280;6445;52.490;13.378;2022-10-22T11:35:29;52534.13;;;-146.10;53.62
12763;BME280;6445;52.490;13.378;2022-10-22T11:37:56;52552.16;;;-146.10;52.85
12763;BME280;6445;52.490;13.378;2022-10-22T11:40:33;52442.09;;;-146.10;57.69
12763;BME280;6445;52.490;13.378;2022-10-22T11:43:10;52498.13;;;-146.10;56.30
12763;BME280;6445;52.490;13.378;2022-10-22T11:45:38;52430.09;;;-146.10;57.81
12763;BME280;6445;52.490;13.378;2022-10-22T11:50:55;52424.09;;;-146.10;58.05
12763;BME280;6445;52.490;13.378;2022-10-22T11:55:51;52466.09;;;-146.10;56.39
12763;BME280;6445;52.490;13.378;2022-10-22T12:00:56;52456.09;;;-146.10;56.28
12763;BME280;6445;52.490;13.378;2022-10-22T12:08:44;52654.19;;;-146.10;46.83
12763;BME280;6445;52.490;13.378;2022-10-22T12:16:24;52728.22;;;-146.10;43.61
12763;BME280;6445;52.490;13.378;2022-10-22T12:18:56;52750.22;;;-146.10;42.83
12763;BME280;6445;52.490;13.378;2022-10-22T12:21:25;52888.28;;;-146.10;39.89
12763;BME280;6445;52.490;13.378;2022-10-22T12:23:50;52910.28;;;-146.10;38.69
12763;BME280;6445;52.490;13.378;2022-10-22T12:26:23;52876.28;;;-146.10;38.66
12763;BME280;6445;52.490;13.378;2022-10-22T12:28:49;52768.22;;;-146.10;40.77
12763;BME280;6445;52.490;13.378;2022-10-22T12:31:15;52718.22;;;-146.10;41.71
12763;BME280;6445;52.490;13.378;2022-10-22T12:33:40;52704.19;;;-146.10;42.22
12763;BME280;6445;52.490;13.378;2022-10-22T12:36:06;52570.16;;;-146.10;44.72
12763;BME280;6445;52.490;13.378;2022-10-22T12:38:31;52562.16;;;-146.10;46.79
12763;BME280;6445;52.490;13.378;2022-10-22T12:40:57;52614.16;;;-146.10;45.49
12763;BME280;6445;52.490;13.378;2022-10-22T12:43:25;52772.22;;;-146.10;40.82
12763;BME280;6445;52.490;13.378;2022-10-22T12:45:51;52836.25;;;-146.10;38.17
12763;BME280;6445;52.490;13.378;2022-10-22T12:48:26;52938.31;;;-146.10;37.04
12763;BME280;6445;52.490;13.378;2022-10-22T12:51:00;52972.31;;;-146.10;36.36
12763;BME280;6445;52.490;13.378;2022-10-22T12:53:35;53048.38;;;-146.10;35.65
12763;BME280;6445;52.490;13.378;2022-10-22T12:56:04;53008.34;;;-146.10;35.71
12763;BME280;6445;52.490;13.378;2022-10-22T12:58:37;52860.28;;;-146.10;37.50
12763;BME280;6445;52.490;13.378;2022-10-22T13:01:03;53012.34;;;-146.10;35.67
12763;BME280;6445;52.490;13.378;2022-10-22T13:03:40;53028.34;;;-146.10;35.71
12763;BME280;6445;52.490;13.378;2022-10-22T13:08:53;52756.22;;;-146.10;38.57
12763;BME280;6445;52.490;13.378;2022-10-22T13:11:19;52738.22;;;-146.10;39.29
12763;BME280;6445;52.490;13.378;2022-10-22T13:13:45;52684.19;;;-146.10;40.01
12763;BME280;6445;52.490;13.378;2022-10-22T13:16:18;52654.19;;;-146.10;40.67
12763;BME280;6445;52.490;13.378;2022-10-22T13:18:45;52616.16;;;-146.10;41.65
12763;BME280;6445;52.490;13.378;2022-10-22T13:21:35;52640.19;;;-146.10;41.80
12763;BME280;6445;52.490;13.378;2022-10-22T13:24:18;52588.16;;;-146.10;42.22
12763;BME280;6445;52.490;13.378;2022-10-22T13:26:47;52576.16;;;-146.10;42.77
12763;BME280;6445;52.490;13.378;2022-10-22T13:29:16;52576.16;;;-146.10;43.00
12763;BME280;6445;52.490;13.378;2022-10-22T13:31:45;52468.09;;;-146.10;45.38
12763;BME280;6445;52.490;13.378;2022-10-22T13:34:14;52416.09;;;-146.10;48.58
12763;BME280;6445;52.490;13.378;2022-10-22T13:36:40;52394.09;;;-146.10;49.84
12763;BME280;6445;52.490;13.378;2022-10-22T13:39:12;52452.09;;;-146.10;48.47
12763;BME280;6445;52.490;13.378;2022-10-22T13:41:39;52472.13;;;-146.10;46.58
12763;BME280;6445;52.490;13.378;2022-10-22T13:44:05;52442.09;;;-146.10;46.96
12763;BME280;6445;52.490;13.378;2022-10-22T13:46:30;52370.06;;;-146.10;50.74
12763;BME280;6445;52.490;13.378;2022-10-22T13:48:56;52340.06;;;-146.10;52.34
12763;BME280;6445;52.490;13.378;2022-10-22T13:51:29;52390.09;;;-146.10;51.27
12763;BME280;6445;52.490;13.378;2022-10-22T13:53:56;52472.13;;;-146.10;48.77